Latest Coastal Weather Observations for Low Rocky Point

IDT60701

Issued at 3:05 pm EST Wednesday 30 July 2014 (issued every 10 minutes, with the page automatically refreshed every 10 minutes)

About coastal observations | Map of coastal stations | Coastal observations for TAS | Marine services | Other Formats
Station Details ID: 097080 Name: LOW ROCKY POINT Lat: -42.98 Lon: 145.50 Height: 34.0 m
Data from the previous 72 hours. | See also: Recent months at Low Rocky Point
Date/Time
EST
Temp

°C
Wind Pressure Rain
since 9am
mm
Weather Cloud Vis
km
Sea
Height
m
Swell
Dir
 
Speed
knots
Gust
knots
hPa Trend Height
m
Period
s
Dir
30/03:00pm 10.5 WNW 25 32 992.8 - 18.0 Rain - - - - - -
30/02:30pm 10.2 W 21 26 993.2 - 15.6 - - - - - - -
30/02:08pm 10.1 W 20 30 992.9 - 13.0 - - - - - - -
30/02:00pm 10.3 W 20 24 993.1 - 11.8 - - - - - - -
30/01:30pm 10.1 W 20 25 993.7 - 8.2 - - - - - - -
30/01:00pm 10.3 W 25 30 994.1 - 5.0 - - - - - - -
30/12:30pm 10.2 W 25 31 994.4 - 1.4 - - - - - - -
30/12:17pm 10.9 W 24 31 994.4 - 0.8 - - - - - - -
30/12:00pm 13.0 NW 36 46 994.0 - 0.2 Recent precip. - - - - - -
30/11:47am 12.7 WNW 33 43 994.5 - 0.2 - - - - - - -
30/11:45am 12.7 WNW 31 36 994.7 - 0.2 - - - - - - -
30/11:30am 12.7 NW 45 59 994.0 - 0.0 - - - - - - -
30/11:17am 12.6 NW 51 61 993.7 - 0.0 - - - - - - -
30/11:00am 12.5 NW 40 53 994.1 - 0.0 - - - - - - -
30/10:30am 12.6 NW 42 56 994.6 - 0.0 - - - - - - -
30/10:00am 12.9 NW 41 51 994.5 - 0.0 - - - - - - -
30/09:30am 12.6 NW 39 52 994.7 - 0.0 - - - - - - -
30/09:00am 12.6 NW 37 49 994.9 - 7.0 Recent precip. - - - - - -
30/08:30am 12.1 WNW 41 55 994.8 - 7.0 - - - - - - -
30/08:00am 12.3 NW 39 50 994.8 - 6.8 - - - - - - -
30/07:30am 11.4 NW 40 51 994.6 - 6.8 - - - - - - -
30/07:00am 11.6 NW 38 50 994.8 - 6.4 - - - - - - -
30/06:30am 11.7 NW 34 46 994.9 - 6.4 - - - - - - -
30/06:09am 11.7 NW 34 44 994.6 - 6.4 - - - - - - -
30/06:00am 11.6 NW 33 41 994.7 - 6.4 - - - - - - -
30/05:47am 11.3 NW 32 43 994.9 - 6.4 - - - - - - -
30/05:30am 11.2 NW 33 42 995.5 - 6.4 - - - - - - -
30/05:12am 11.0 WNW 31 41 996.0 - 6.4 - - - - - - -
30/05:00am 10.9 WNW 36 43 996.0 - 6.4 - - - - - - -
30/04:30am 10.8 WNW 32 38 996.2 - 6.4 - - - - - - -
30/04:10am 10.6 WNW 34 44 996.5 - 6.4 - - - - - - -
30/04:00am 10.6 W 35 44 996.5 - 6.4 - - - - - - -
30/03:53am 10.7 W 32 42 996.5 - 6.4 - - - - - - -
30/03:52am 10.8 W 31 37 996.5 - 6.4 - - - - - - -
30/03:30am 10.7 WNW 42 52 996.4 - 6.4 - - - - - - -
30/03:00am 10.9 W 40 50 996.7 - 6.4 - - - - - - -
30/02:32am 10.7 W 43 53 996.4 - 6.4 - - - - - - -
30/02:30am 10.7 W 44 53 996.2 - 6.4 - - - - - - -
30/02:00am 10.7 W 42 54 995.4 - 6.4 - - - - - - -
30/01:30am 10.5 W 46 59 994.9 - 6.4 - - - - - - -
30/01:00am 8.7 W 46 66 994.5 - 6.4 - - - - - - -
30/12:30am 10.5 WNW 45 59 993.3 - 6.2 - - - - - - -
30/12:00am 9.5 WNW 45 59 992.9 - 6.2 Recent precip. - - - - - -
 
Date/Time
EST
Temp

°C
Wind Pressure Rain
since 9am
mm
Weather Cloud Vis
km
Sea
Height
m
Swell
Dir
 
Speed
knots
Gust
knots
hPa Trend Height
m
Period
s
Dir
29/11:30pm 9.2 W 48 66 991.9 - 6.2 - - - - - - -
29/11:00pm 9.4 W 48 60 991.5 - 6.0 - - - - - - -
29/10:35pm 7.2 WNW 51 72 990.8 - 6.0 - - - - - - -
29/10:30pm 10.6 WNW 46 59 990.8 - 5.2 - - - - - - -
29/10:03pm 8.1 W 47 59 990.7 - 5.2 - - - - - - -
29/10:00pm 7.7 W 59 75 990.9 - 5.2 - - - - - - -
29/09:58pm 7.8 W 63 75 990.6 - 5.2 - - - - - - -
29/09:57pm 8.7 W 48 75 990.6 - 5.0 - - - - - - -
29/09:30pm 11.9 WNW 49 59 989.4 - 4.6 - - - - - - -
29/09:00pm 11.9 WNW 47 58 989.4 - 4.6 - - - - - - -
29/08:30pm 11.9 WNW 53 66 988.8 - 4.6 - - - - - - -
29/08:00pm 12.3 WNW 47 57 987.9 - 4.6 - - - - - - -
29/07:30pm 11.5 WNW 48 59 987.3 - 4.6 - - - - - - -
29/07:00pm 12.3 WNW 50 61 986.7 - 4.4 - - - - - - -
29/06:30pm 12.1 WNW 51 61 986.0 - 4.4 - - - - - - -
29/06:00pm 12.5 WNW 55 68 985.1 - 4.4 - - - - - - -
29/05:56pm 12.4 WNW 56 68 984.6 - 4.4 - - - - - - -
29/05:53pm 12.5 WNW 55 63 984.6 - 4.4 - - - - - - -
29/05:30pm 11.8 WNW 43 57 984.9 - 4.4 - - - - - - -
29/05:03pm 10.5 WNW 38 48 984.5 - 4.4 - - - - - - -
29/05:00pm 10.3 WNW 38 45 984.5 - 4.4 - - - - - - -
29/04:56pm 10.0 WNW 37 45 984.3 - 4.4 - - - - - - -
29/04:41pm 9.8 WNW 51 71 984.7 - 3.8 - - - - - - -
29/04:32pm 10.0 WNW 51 61 984.5 - 3.8 - - - - - - -
29/04:30pm 9.8 WNW 41 56 984.5 - 3.8 - - - - - - -
29/04:16pm 9.5 WNW 37 49 984.5 - 3.8 - - - - - - -
29/04:15pm 9.3 WNW 38 45 984.6 - 3.8 - - - - - - -
29/04:00pm 9.8 W 49 59 984.7 - 2.6 - - - - - - -
29/03:30pm 13.6 NW 43 56 983.7 - 2.0 - - - - - - -
29/03:01pm 13.1 NW 43 54 983.9 - 2.0 - - - - - - -
29/03:00pm 13.0 NW 42 51 983.9 - 2.0 - - - - - - -
29/02:30pm 13.1 NW 46 57 984.1 - 2.0 - - - - - - -
29/02:00pm 13.0 NW 45 55 984.9 - 2.0 - - - - - - -
29/01:30pm 11.9 NW 41 53 986.0 - 2.0 - - - - - - -
29/01:00pm 12.1 NW 40 54 987.0 - 1.8 - - - - - - -
29/12:45pm 12.6 NW 46 57 986.7 - 1.8 - - - - - - -
29/12:44pm 12.6 NW 48 57 986.7 - 1.8 - - - - - - -
29/12:30pm 12.3 NW 38 51 987.2 - 1.8 - - - - - - -
29/12:00pm 11.2 NW 38 49 988.1 - 1.8 Recent precip. - - - - - -
29/11:35am 11.3 NW 38 57 988.0 - 1.8 - - - - - - -
29/11:30am 11.5 NW 35 46 988.3 - 1.8 - - - - - - -
29/11:11am 10.0 WNW 38 48 988.7 - 1.8 - - - - - - -
29/11:05am 9.1 WNW 42 48 988.8 - 1.6 - - - - - - -
29/11:00am 10.2 NW 52 64 987.9 - 1.0 - - - - - - -
29/10:59am 10.8 NW 36 61 988.2 - 1.0 - - - - - - -
29/10:52am 11.4 WNW 34 44 988.6 - 1.0 - - - - - - -
29/10:35am 9.5 NW 39 45 988.9 - 1.0 - - - - - - -
29/10:33am 9.3 NW 52 64 988.5 - 0.8 - - - - - - -
29/10:32am 9.8 NW 55 64 988.4 - 0.4 - - - - - - -
29/10:30am 12.7 NW 39 61 988.5 - 0.0 - - - - - - -
29/10:00am 12.7 NW 40 51 989.0 - 0.0 - - - - - - -
29/09:30am 12.6 NW 39 51 988.8 - 0.0 - - - - - - -
29/09:00am 12.5 NW 40 51 988.8 - 16.4 - - - - - - -
29/08:33am 12.6 NW 35 45 988.9 - 16.4 - - - - - - -
29/08:30am 12.5 NW 36 45 989.0 - 16.4 - - - - - - -
29/08:00am 12.5 NW 39 51 988.7 - 16.4 - - - - - - -
29/07:30am 11.5 NW 39 49 988.5 - 16.4 - - - - - - -
29/07:25am 11.3 NW 41 52 988.2 - 16.4 - - - - - - -
29/07:14am 12.0 NW 51 63 988.2 - 16.4 - - - - - - -
29/07:13am 12.0 NW 39 63 988.2 - 16.4 - - - - - - -
29/07:00am 12.5 NW 40 50 988.6 - 16.0 - - - - - - -
29/06:30am 12.8 NW 40 53 988.4 - 14.8 - - - - - - -
29/06:00am 12.6 NW 41 54 988.5 - 14.6 Recent precip. - - - - - -
29/05:30am 12.2 NW 43 54 988.7 - 14.6 - - - - - - -
29/05:12am 12.2 NNW 40 59 988.9 - 13.8 - - - - - - -
29/05:00am 12.7 NNW 34 45 989.2 - 12.0 - - - - - - -
29/04:30am 12.2 NNW 32 42 990.1 - 11.6 - - - - - - -
29/04:02am 12.4 NNW 27 38 991.1 - 10.8 - - - - - - -
29/04:00am 12.3 NNW 27 35 991.1 - 10.8 - - - - - - -
29/03:31am 12.5 NNW 32 43 992.2 - 10.4 - - - - - - -
29/03:30am 12.5 NNW 32 41 992.3 - 10.4 - - - - - - -
29/03:00am 12.7 NNW 34 45 993.3 - 10.4 - - - - - - -
29/02:49am 12.7 NNW 28 38 993.4 - 10.4 - - - - - - -
29/02:44am 12.6 NNW 27 33 993.6 - 10.4 - - - - - - -
29/02:30am 12.7 NW 37 47 994.0 - 10.4 - - - - - - -
29/02:20am 12.8 NW 34 44 994.1 - 10.4 - - - - - - -
29/02:00am 12.5 NW 35 43 994.5 - 10.4 - - - - - - -
29/01:30am 11.6 NW 35 44 995.1 - 10.0 - - - - - - -
29/01:08am 12.3 NNW 31 41 995.7 - 9.0 - - - - - - -
29/01:00am 12.3 NW 32 40 995.7 - 8.8 - - - - - - -
29/12:30am 12.3 NW 30 37 996.5 - 8.8 - - - - - - -
29/12:14am 12.4 NW 31 41 996.8 - 8.8 - - - - - - -
29/12:00am 12.4 NW 30 39 997.0 - 8.8 Recent precip. - - - - - -
 
Date/Time
EST
Temp

°C
Wind Pressure Rain
since 9am
mm
Weather Cloud Vis
km
Sea
Height
m
Swell
Dir
 
Speed
knots
Gust
knots
hPa Trend Height
m
Period
s
Dir
28/11:55pm 12.2 NW 29 39 997.1 - 8.8 - - - - - - -
28/11:30pm 11.2 NW 34 42 997.7 - 8.8 - - - - - - -
28/11:07pm 12.5 NW 31 50 997.6 - 8.4 - - - - - - -
28/11:03pm 12.7 NW 27 38 998.1 - 8.4 - - - - - - -
28/11:00pm 12.6 NW 26 32 998.1 - 8.4 - - - - - - -
28/10:30pm 12.4 NW 32 43 998.4 - 8.4 - - - - - - -
28/10:00pm 12.2 NNW 29 40 999.0 - 8.4 - - - - - - -
28/09:34pm 12.2 NNW 30 40 999.5 - 8.2 - - - - - - -
28/09:30pm 12.2 NW 32 40 999.5 - 8.2 - - - - - - -
28/09:09pm 12.4 NNW 35 46 999.5 - 8.2 - - - - - - -
28/09:00pm 12.4 NNW 31 40 999.9 - 8.2 Recent precip. - - - - - -
28/08:35pm 12.3 NW 33 43 999.7 - 8.2 - - - - - - -
28/08:30pm 12.1 NW 35 44 999.6 - 8.2 - - - - - - -
28/08:02pm 12.1 NW 32 44 999.6 - 8.0 - - - - - - -
28/08:00pm 12.7 NW 32 40 999.8 - 8.0 - - - - - - -
28/07:30pm 12.4 NW 32 42 999.8 - 8.0 - - - - - - -
28/07:00pm 12.3 NW 37 47 999.7 - 8.0 - - - - - - -
28/06:45pm 11.8 NW 28 39 999.6 - 8.0 - - - - - - -
28/06:44pm 11.8 NW 27 35 999.7 - 8.0 - - - - - - -
28/06:33pm 11.6 NW 39 49 999.5 - 8.0 - - - - - - -
28/06:31pm 11.7 NW 40 49 999.4 - 8.0 - - - - - - -
28/06:30pm 11.6 NW 25 49 999.5 - 8.0 - - - - - - -
28/06:29pm 11.6 NW 22 34 999.8 - 7.8 - - - - - - -
28/06:26pm 11.6 NW 21 25 999.9 - 7.8 - - - - - - -
28/06:00pm 11.9 NW 31 41 1000.2 - 7.0 Recent precip. - - - - - -
28/05:56pm 11.8 NW 29 41 1000.1 - 7.0 - - - - - - -
28/05:30pm 11.0 NW 33 42 1000.3 - 7.0 - - - - - - -
28/05:04pm 11.2 NNW 33 43 1000.4 - 6.0 - - - - - - -
28/05:00pm 11.1 NNW 35 43 1000.5 - 6.0 - - - - - - -
28/04:58pm 11.2 NNW 37 43 1000.5 - 6.0 - - - - - - -
28/04:39pm 11.0 NW 25 36 1000.1 - 4.4 - - - - - - -
28/04:30pm 10.3 NW 28 36 1000.0 - 4.2 - - - - - - -
28/04:07pm 10.5 NW 26 37 1000.5 - 1.4 - - - - - - -
28/04:00pm 11.0 NW 25 31 1000.9 - 0.8 - - - - - - -
28/03:58pm 10.8 NW 25 31 1000.7 - 0.8 - - - - - - -
28/03:34pm 11.1 NW 35 39 1000.9 - 0.6 - - - - - - -
28/03:30pm 11.5 NNW 25 35 1001.1 - 0.6 - - - - - - -
28/03:00pm 11.2 NNW 27 39 1001.5 - 0.4 - - - - - - -
28/02:41pm 12.7 NNW 29 39 1001.2 - 0.4 - - - - - - -
28/02:30pm 12.7 NNW 30 39 1001.0 - 0.4 - - - - - - -
28/02:00pm 12.9 NNW 29 37 1002.0 - 0.4 - - - - - - -
28/01:30pm 12.7 NW 30 37 1002.5 - 0.4 - - - - - - -
28/01:09pm 12.6 NW 31 41 1003.2 - 0.4 - - - - - - -
28/01:00pm 12.4 NW 33 39 1003.3 - 0.4 - - - - - - -
28/12:30pm 11.7 NW 28 46 1003.8 - 0.4 - - - - - - -
28/12:20pm 12.6 NW 31 42 1003.8 - 0.0 - - - - - - -
28/12:00pm 13.0 NW 28 34 1004.4 - 0.0 - - - - - - -
28/11:30am 13.4 NW 28 35 1004.7 - 0.0 - - - - - - -
28/11:09am 12.7 NW 26 36 1005.0 - 0.0 - - - - - - -
28/11:00am 12.6 NW 27 34 1005.2 - 0.0 - - - - - - -
28/10:30am 12.9 NW 27 34 1005.2 - 0.0 - - - - - - -
28/10:00am 12.8 NW 26 33 1005.2 - 0.0 - - - - - - -
28/09:30am 12.9 NW 25 31 1005.2 - 0.0 - - - - - - -
28/09:00am 12.5 NW 26 33 1005.2 - 14.8 - - - - - - -
28/08:30am 12.3 NW 27 33 1005.0 - 14.8 - - - - - - -
28/08:00am 12.2 WNW 26 31 1005.3 - 14.8 - - - - - - -
28/07:30am 12.2 WNW 29 34 1005.3 - 14.8 - - - - - - -
28/07:00am 12.2 NW 25 33 1005.4 - 14.8 - - - - - - -
28/06:30am 12.8 NW 25 34 1005.4 - 14.8 - - - - - - -
28/06:00am 13.0 NW 29 37 1005.3 - 14.8 - - - - - - -
28/05:30am 12.9 NW 27 37 1005.3 - 14.8 - - - - - - -
28/05:03am 12.8 NW 27 37 1005.1 - 14.8 - - - - - - -
28/05:00am 13.0 NW 27 34 1005.3 - 14.8 - - - - - - -
28/04:52am 12.8 NW 29 39 1005.2 - 14.8 - - - - - - -
28/04:30am 12.9 NW 30 37 1005.0 - 14.8 - - - - - - -
28/04:00am 13.0 NW 29 35 1005.0 - 14.8 - - - - - - -
28/03:32am 13.2 NW 29 39 1005.1 - 14.8 - - - - - - -
28/03:30am 13.2 NW 30 39 1005.1 - 14.8 - - - - - - -
28/03:26am 13.3 NW 29 39 1005.1 - 14.8 - - - - - - -
28/03:00am 13.0 NW 32 41 1005.2 - 14.8 Recent precip. - - - - - -
28/02:30am 13.2 NNW 35 47 1005.1 - 14.6 - - - - - - -
28/02:00am 12.8 NNW 29 39 1005.5 - 13.0 - - - - - - -
28/01:30am 12.8 NNW 29 40 1005.6 - 12.8 - - - - - - -
28/01:00am 12.6 NNW 26 38 1005.8 - 12.6 - - - - - - -
28/12:30am 12.6 NNW 26 37 1006.3 - 12.4 - - - - - - -
28/12:00am 12.6 NNW 26 38 1007.1 - 12.2 Recent precip. - - - - - -
 
Date/Time
EST
Temp

°C
Wind Pressure Rain
since 9am
mm
Weather Cloud Vis
km
Sea
Height
m
Swell
Dir
 
Speed
knots
Gust
knots
hPa Trend Height
m
Period
s
Dir
27/11:34pm 12.3 N 19 29 1007.6 - 12.0 - - - - - - -
27/11:30pm 12.2 N 19 28 1007.6 - 12.0 - - - - - - -
27/11:05pm 12.4 NNW 22 32 1008.3 - 11.6 - - - - - - -
27/11:00pm 12.3 NNW 22 31 1008.5 - 11.2 - - - - - - -
27/10:34pm 12.3 NNW 23 33 1008.9 - 10.0 - - - - - - -
27/10:30pm 12.3 NNW 24 33 1008.9 - 9.8 - - - - - - -
27/10:00pm 12.5 NNW 25 35 1009.5 - 7.8 - - - - - - -
27/09:44pm 12.4 NNW 25 35 1009.2 - 7.2 - - - - - - -
27/09:30pm 12.4 NNW 25 34 1009.5 - 7.0 - - - - - - -
27/09:04pm 12.3 NNW 21 31 1009.6 - 6.2 - - - - - - -
27/09:00pm 12.3 NNW 21 30 1009.7 - 6.2 Recent precip. - - - - - -
27/08:54pm 12.2 NNW 20 30 1009.8 - 6.2 - - - - - - -
27/08:30pm 12.2 NNW 19 28 1010.0 - 5.8 - - - - - - -
27/08:00pm 12.1 NNW 18 23 1010.5 - 4.6 - - - - - - -
27/07:30pm 12.1 NNW 18 24 1010.6 - 1.2 - - - - - - -
27/07:00pm 12.3 NNW 20 32 1010.9 - 0.8 - - - - - - -
27/06:37pm 12.2 NNW 21 31 1010.8 - 0.6 - - - - - - -
27/06:30pm 12.2 NNW 23 29 1010.8 - 0.6 - - - - - - -
27/06:00pm 12.4 NNW 22 32 1011.1 - 0.6 - - - - - - -
27/05:30pm 12.7 NNW 23 34 1011.3 - 0.6 - - - - - - -
27/05:15pm 12.8 NNW 22 32 1011.4 - 0.6 - - - - - - -
27/05:00pm 12.9 NNW 23 30 1011.4 - 0.6 - - - - - - -
27/04:30pm 12.7 NNW 23 33 1011.5 - 0.6 - - - - - - -
27/04:00pm 12.3 NNW 20 30 1011.8 - 0.6 - - - - - - -
27/03:46pm 12.2 NNW 21 33 1011.9 - 0.6 - - - - - - -
27/03:30pm 12.1 NNW 19 26 1012.1 - 0.6 - - - - - - -
27/03:09pm 12.2 NNW 20 30 1012.1 - 0.6 - - - - - - -

Other Formats:

Comma delimited format used in spreadsheet applications
http://www.bom.gov.au/fwo/IDT60701/IDT60701.95961.axf

JavaScript Object Notation format (JSON) in row-major order
http://www.bom.gov.au/fwo/IDT60701/IDT60701.95961.json